createdAt,value
2022-09-21T00:01:19.104Z,1.08
2022-09-21T00:03:47.166Z,0.95
2022-09-21T00:06:17.162Z,1.52
2022-09-21T00:08:45.525Z,1.00
2022-09-21T00:11:14.086Z,1.40
2022-09-21T00:13:42.056Z,1.35
2022-09-21T00:16:09.586Z,1.67
2022-09-21T00:18:36.671Z,2.30
2022-09-21T00:21:11.692Z,1.60
2022-09-21T00:23:39.337Z,4.82
2022-09-21T00:26:06.273Z,2.80
2022-09-21T00:31:18.778Z,3.42
2022-09-21T00:33:45.724Z,1.92
2022-09-21T00:36:17.186Z,3.63
2022-09-21T00:38:46.125Z,3.13
2022-09-21T00:41:53.624Z,2.65
2022-09-21T00:44:24.777Z,1.77
2022-09-21T00:46:55.375Z,1.90
2022-09-21T00:49:23.153Z,2.90
2022-09-21T00:52:10.583Z,4.53
2022-09-21T00:54:44.344Z,1.52
2022-09-21T00:57:12.040Z,2.78
2022-09-21T00:59:39.925Z,2.00
2022-09-21T01:02:26.767Z,2.30
2022-09-21T01:04:55.092Z,2.78
2022-09-21T01:07:32.338Z,2.78
2022-09-21T01:10:05.277Z,3.75
2022-09-21T01:13:07.123Z,3.28
2022-09-21T01:16:21.935Z,2.67
2022-09-21T01:19:21.817Z,2.50
2022-09-21T01:22:05.642Z,2.47
2022-09-21T01:24:50.647Z,2.53
2022-09-21T01:27:33.147Z,3.22
2022-09-21T01:33:06.819Z,6.40
2022-09-21T01:35:39.388Z,1.48
2022-09-21T01:38:12.772Z,2.67
2022-09-21T01:40:43.295Z,3.13
2022-09-21T01:43:15.607Z,1.88
2022-09-21T01:45:49.646Z,2.10
2022-09-21T01:48:18.776Z,1.73
2022-09-21T01:50:49.944Z,3.78
2022-09-21T01:53:43.102Z,1.40
2022-09-21T01:56:13.005Z,2.00
2022-09-21T01:58:45.375Z,1.42
2022-09-21T02:01:17.256Z,3.28
2022-09-21T02:04:09.877Z,2.60
2022-09-21T02:06:41.532Z,2.38
2022-09-21T02:09:10.694Z,3.50
2022-09-21T02:11:43.111Z,1.75
2022-09-21T02:14:12.781Z,0.93
2022-09-21T02:16:50.582Z,0.77
2022-09-21T02:19:40.309Z,1.88
2022-09-21T02:22:12.708Z,5.28
2022-09-21T02:28:00.896Z,5.78
2022-09-21T02:30:28.321Z,1.13
2022-09-21T02:33:18.558Z,1.52
2022-09-21T02:35:54.367Z,0.85
2022-09-21T02:38:27.131Z,0.88
2022-09-21T02:41:03.507Z,0.93
2022-09-21T02:43:43.822Z,2.20
2022-09-21T02:46:18.137Z,1.00
2022-09-21T02:48:52.291Z,1.60
2022-09-21T02:51:43.168Z,1.05
2022-09-21T02:54:13.819Z,0.75
2022-09-21T02:56:42.644Z,1.55
2022-09-21T02:59:10.552Z,1.52
2022-09-21T03:01:40.208Z,2.70
2022-09-21T03:04:07.305Z,2.83
2022-09-21T03:06:53.123Z,2.75
2022-09-21T03:09:21.265Z,1.83
2022-09-21T03:11:48.093Z,1.85
2022-09-21T03:14:15.051Z,0.80
2022-09-21T03:16:41.782Z,1.80
2022-09-21T03:19:10.170Z,2.25
2022-09-21T03:21:39.215Z,4.63
2022-09-21T03:24:09.453Z,1.00
2022-09-21T03:26:36.652Z,2.50
2022-09-21T03:31:48.495Z,0.50
2022-09-21T03:34:15.443Z,0.82
2022-09-21T03:36:42.219Z,2.47
2022-09-21T03:39:08.964Z,1.00
2022-09-21T03:41:35.758Z,1.55
2022-09-21T03:44:02.711Z,1.30
2022-09-21T03:46:29.522Z,1.27
2022-09-21T03:48:56.247Z,1.33
2022-09-21T03:51:23.641Z,0.82
2022-09-21T03:53:50.500Z,1.10
2022-09-21T03:56:17.271Z,0.95
2022-09-21T03:58:44.380Z,0.88
2022-09-21T04:01:30.012Z,0.98
2022-09-21T04:03:56.820Z,4.28
2022-09-21T04:06:23.543Z,1.17
2022-09-21T04:08:50.309Z,0.88
2022-09-21T04:11:18.651Z,1.20
2022-09-21T04:13:49.857Z,0.63
2022-09-21T04:16:17.962Z,0.47
2022-09-21T04:18:44.743Z,0.93
2022-09-21T04:23:56.061Z,0.47
2022-09-21T04:26:28.817Z,1.27
2022-09-21T04:28:56.461Z,2.50
2022-09-21T04:31:24.817Z,0.43
2022-09-21T04:33:54.042Z,3.60
2022-09-21T04:36:22.046Z,3.78
2022-09-21T04:38:49.187Z,1.70
2022-09-21T04:41:16.508Z,1.67
2022-09-21T04:43:47.735Z,1.20
2022-09-21T04:46:16.740Z,0.93
2022-09-21T04:48:43.773Z,1.30
2022-09-21T04:51:11.280Z,1.10
2022-09-21T04:53:39.799Z,3.65
2022-09-21T04:56:08.141Z,1.50
2022-09-21T04:58:35.464Z,1.95
2022-09-21T05:01:02.323Z,0.50
2022-09-21T05:03:29.109Z,0.80
2022-09-21T05:05:57.236Z,0.60
2022-09-21T05:08:44.473Z,1.90
2022-09-21T05:11:19.013Z,1.42
2022-09-21T05:13:46.260Z,1.05
2022-09-21T05:16:13.660Z,0.60
2022-09-21T05:18:40.733Z,2.92
2022-09-21T05:21:07.607Z,2.25
2022-09-21T05:23:34.448Z,3.22
2022-09-21T05:26:01.238Z,1.73
2022-09-21T05:28:46.891Z,0.50
2022-09-21T05:31:41.407Z,0.93
2022-09-21T05:34:45.573Z,0.45
2022-09-21T05:37:24.289Z,0.70
2022-09-21T05:40:47.515Z,0.60
2022-09-21T05:43:14.936Z,1.45
2022-09-21T05:45:47.807Z,2.05
2022-09-21T05:48:21.522Z,2.15
2022-09-21T05:51:11.170Z,1.98
2022-09-21T05:53:52.910Z,3.33
2022-09-21T05:56:36.686Z,1.75
2022-09-21T05:59:12.456Z,2.30
2022-09-21T06:02:07.276Z,3.42
2022-09-21T06:04:34.579Z,0.57
2022-09-21T06:07:01.409Z,1.00
2022-09-21T06:09:28.477Z,0.85
2022-09-21T06:11:55.204Z,1.10
2022-09-21T06:14:25.617Z,0.68
2022-09-21T06:16:53.046Z,1.10
2022-09-21T06:19:38.283Z,1.80
2022-09-21T06:22:05.139Z,2.47
2022-09-21T06:24:31.878Z,5.60
2022-09-21T06:26:58.645Z,1.65
2022-09-21T06:29:25.364Z,2.50
2022-09-21T06:31:52.189Z,2.10
2022-09-21T06:34:19.003Z,1.90
2022-09-21T06:36:45.965Z,0.80
2022-09-21T06:39:12.809Z,1.25
2022-09-21T06:41:39.832Z,1.75
2022-09-21T06:44:10.107Z,2.33
2022-09-21T06:46:37.011Z,1.55
2022-09-21T06:49:03.812Z,0.80
2022-09-21T06:51:30.826Z,0.70
2022-09-21T06:53:58.828Z,1.35
2022-09-21T06:56:26.288Z,1.20
2022-09-21T06:59:11.947Z,2.13
2022-09-21T07:01:39.258Z,1.88
2022-09-21T07:04:09.371Z,1.88
2022-09-21T07:06:36.480Z,1.45
2022-09-21T07:11:50.180Z,2.90
2022-09-21T07:14:16.880Z,1.40
2022-09-21T07:16:43.912Z,1.52
2022-09-21T07:19:11.725Z,4.03
2022-09-21T07:21:39.005Z,4.05
2022-09-21T07:24:11.039Z,2.60
2022-09-21T07:26:38.908Z,2.78
2022-09-21T07:29:05.919Z,2.28
2022-09-21T07:31:32.908Z,1.90
2022-09-21T07:33:59.656Z,1.95
2022-09-21T07:36:26.859Z,1.33
2022-09-21T07:38:54.142Z,1.40
2022-09-21T07:41:21.562Z,1.27
2022-09-21T07:43:48.360Z,3.88
2022-09-21T07:46:15.714Z,3.42
2022-09-21T07:48:43.701Z,2.83
2022-09-21T07:51:13.794Z,20.23
2022-09-21T07:53:44.084Z,32.28
2022-09-21T07:56:16.296Z,11.85
2022-09-21T07:59:09.591Z,5.53
2022-09-21T08:01:38.938Z,5.22
2022-09-21T08:04:10.777Z,3.20
2022-09-21T08:06:40.325Z,2.75
2022-09-21T08:09:25.724Z,2.63
2022-09-21T08:11:53.096Z,1.77
2022-09-21T08:14:23.832Z,2.35
2022-09-21T08:16:52.815Z,3.00
2022-09-21T08:19:20.436Z,1.73
2022-09-21T08:21:54.923Z,3.25
2022-09-21T08:24:26.864Z,3.83
2022-09-21T08:26:55.902Z,2.58
2022-09-21T08:29:24.720Z,3.08
2022-09-21T08:31:53.360Z,1.80
2022-09-21T08:34:20.280Z,4.05
2022-09-21T08:37:24.821Z,4.78
2022-09-21T08:39:51.593Z,2.85
2022-09-21T08:42:39.985Z,3.78
2022-09-21T08:45:18.978Z,3.13
2022-09-21T08:47:55.655Z,1.70
2022-09-21T08:50:44.441Z,1.48
2022-09-21T08:53:15.742Z,3.60
2022-09-21T08:55:42.630Z,2.88
2022-09-21T08:58:24.626Z,2.10
2022-09-21T09:01:15.397Z,4.32
2022-09-21T09:03:48.535Z,2.10
2022-09-21T09:06:30.279Z,1.42
2022-09-21T09:09:15.872Z,3.40
2022-09-21T09:12:10.819Z,1.70
2022-09-21T09:15:03.596Z,2.83
2022-09-21T09:17:49.193Z,2.00
2022-09-21T09:20:22.416Z,2.47
2022-09-21T09:23:04.483Z,3.55
2022-09-21T09:25:37.720Z,2.42
2022-09-21T09:28:36.172Z,3.25
2022-09-21T09:31:16.859Z,2.90
2022-09-21T09:33:53.013Z,3.90
2022-09-21T09:36:34.786Z,6.15
2022-09-21T09:39:15.659Z,5.40
2022-09-21T09:42:22.043Z,4.00
2022-09-21T09:45:07.118Z,4.72
2022-09-21T09:47:56.982Z,4.43
2022-09-21T09:50:27.687Z,4.70
2022-09-21T09:53:02.603Z,3.65
2022-09-21T09:55:37.886Z,6.47
2022-09-21T09:58:07.180Z,11.07
2022-09-21T10:00:34.815Z,6.93
2022-09-21T10:03:01.588Z,5.85
2022-09-21T10:06:05.987Z,6.68
2022-09-21T10:08:43.638Z,7.20
2022-09-21T10:11:13.456Z,5.28
2022-09-21T10:13:43.356Z,6.32
2022-09-21T10:16:28.716Z,9.13
2022-09-21T10:19:32.704Z,5.07
2022-09-21T10:22:02.668Z,14.90
2022-09-21T10:24:36.330Z,7.65
2022-09-21T10:27:19.843Z,4.90
2022-09-21T10:29:48.569Z,6.90
2022-09-21T10:32:17.852Z,9.10
2022-09-21T10:35:10.428Z,7.82
2022-09-21T10:37:41.371Z,6.65
2022-09-21T10:40:20.092Z,5.78
2022-09-21T10:42:49.296Z,5.40
2022-09-21T10:45:22.092Z,4.55
2022-09-21T10:47:52.357Z,4.75
2022-09-21T10:50:24.537Z,4.10
2022-09-21T10:52:56.928Z,4.13
2022-09-21T10:55:25.486Z,4.25
2022-09-21T10:57:53.248Z,3.75
2022-09-21T11:00:26.247Z,4.43
2022-09-21T11:02:55.421Z,6.57
2022-09-21T11:05:39.235Z,4.75
2022-09-21T11:08:16.009Z,5.85
2022-09-21T11:10:45.505Z,5.15
2022-09-21T11:13:40.544Z,3.75
2022-09-21T11:19:14.782Z,4.63
2022-09-21T11:21:52.464Z,3.72
2022-09-21T11:24:40.888Z,4.13
2022-09-21T11:27:18.861Z,3.58
2022-09-21T11:30:04.159Z,5.85
2022-09-21T11:32:34.014Z,4.13
2022-09-21T11:35:16.053Z,3.80
2022-09-21T11:38:04.429Z,4.57
2022-09-21T11:40:48.926Z,8.98
2022-09-21T11:43:49.395Z,4.18
2022-09-21T11:46:28.440Z,3.88
2022-09-21T11:49:21.895Z,4.05
2022-09-21T11:52:11.545Z,4.50
2022-09-21T11:55:00.460Z,3.78
2022-09-21T11:57:35.433Z,3.03
2022-09-21T12:00:16.689Z,7.78
2022-09-21T12:02:52.750Z,3.72
2022-09-21T12:05:50.799Z,4.20
2022-09-21T12:08:52.864Z,3.88
2022-09-21T12:11:44.437Z,6.53
2022-09-21T12:17:37.715Z,6.05
2022-09-21T12:20:13.352Z,3.75
2022-09-21T12:22:44.333Z,3.80
2022-09-21T12:25:20.440Z,7.20
2022-09-21T12:27:50.177Z,3.08
2022-09-21T12:30:22.730Z,3.50
2022-09-21T12:32:55.983Z,3.80
2022-09-21T12:35:37.096Z,3.97
2022-09-21T12:38:41.015Z,2.42
2022-09-21T12:41:46.889Z,4.68
2022-09-21T12:44:53.496Z,7.95
2022-09-21T12:47:59.819Z,13.98
2022-09-21T12:50:49.747Z,7.45
2022-09-21T12:53:37.825Z,6.47
2022-09-21T12:56:22.620Z,7.75
2022-09-21T12:59:22.917Z,11.45
2022-09-21T13:01:57.537Z,7.60
2022-09-21T13:04:43.243Z,10.35
2022-09-21T13:07:25.514Z,8.05
2022-09-21T13:09:53.115Z,8.15
2022-09-21T13:12:24.991Z,7.35
2022-09-21T13:15:02.640Z,6.93
2022-09-21T13:17:31.441Z,13.30
2022-09-21T13:20:05.168Z,7.15
2022-09-21T13:22:35.083Z,7.35
2022-09-21T13:25:20.156Z,5.13
2022-09-21T13:28:02.236Z,8.45
2022-09-21T13:30:39.296Z,5.75
2022-09-21T13:33:18.118Z,5.30
2022-09-21T13:35:45.508Z,10.27
2022-09-21T13:38:54.325Z,10.35
2022-09-21T13:41:51.857Z,8.40
2022-09-21T13:44:21.650Z,5.55
2022-09-21T13:46:52.381Z,4.88
2022-09-21T13:49:29.455Z,5.55
2022-09-21T13:52:08.285Z,5.55
2022-09-21T13:54:51.089Z,5.97
2022-09-21T13:57:32.836Z,8.77
2022-09-21T14:00:11.753Z,7.85
2022-09-21T14:02:50.322Z,5.10
2022-09-21T14:05:50.982Z,11.07
2022-09-21T14:11:15.957Z,7.60
2022-09-21T14:13:48.972Z,7.88
2022-09-21T14:16:34.128Z,5.57
2022-09-21T14:19:02.985Z,7.25
2022-09-21T14:21:30.167Z,8.18
2022-09-21T14:24:05.977Z,7.35
2022-09-21T14:26:59.071Z,8.18
2022-09-21T14:29:44.620Z,7.68
2022-09-21T14:32:23.864Z,5.28
2022-09-21T14:35:16.710Z,4.95
2022-09-21T14:37:56.149Z,9.30
2022-09-21T14:40:26.797Z,7.68
2022-09-21T14:42:56.565Z,7.00
2022-09-21T14:46:11.799Z,6.90
2022-09-21T14:48:58.994Z,7.65
2022-09-21T14:51:47.350Z,10.68
2022-09-21T14:54:34.382Z,8.65
2022-09-21T14:57:35.763Z,10.10
2022-09-21T15:00:26.261Z,9.20
2022-09-21T15:03:38.506Z,7.15
2022-09-21T15:06:56.613Z,5.10
2022-09-21T15:10:15.937Z,7.53
2022-09-21T15:13:22.773Z,10.23
2022-09-21T15:16:25.895Z,8.27
2022-09-21T15:19:20.390Z,5.03
2022-09-21T15:21:52.797Z,5.50
2022-09-21T15:24:58.074Z,7.05
2022-09-21T15:27:33.462Z,7.47
2022-09-21T15:30:04.362Z,6.90
2022-09-21T15:32:38.956Z,11.38
2022-09-21T15:35:27.815Z,8.05
2022-09-21T15:37:56.144Z,7.00
2022-09-21T15:40:26.033Z,6.68
2022-09-21T15:43:19.518Z,4.25
2022-09-21T15:46:02.450Z,5.25
2022-09-21T15:48:34.356Z,8.82
2022-09-21T15:51:40.679Z,10.50
2022-09-21T15:54:20.009Z,5.75
2022-09-21T15:56:47.594Z,6.60
2022-09-21T15:59:20.791Z,6.00
2022-09-21T16:01:50.778Z,7.45
2022-09-21T16:04:39.514Z,6.70
2022-09-21T16:07:24.295Z,9.07
2022-09-21T16:09:51.679Z,4.97
2022-09-21T16:12:41.113Z,8.60
2022-09-21T16:15:29.320Z,10.10
2022-09-21T16:18:06.708Z,5.43
2022-09-21T16:20:42.297Z,5.65
2022-09-21T16:23:19.094Z,3.50
2022-09-21T16:25:54.916Z,5.28
2022-09-21T16:28:22.249Z,6.13
2022-09-21T16:30:51.313Z,6.28
2022-09-21T16:33:44.035Z,4.03
2022-09-21T16:36:20.110Z,7.38
2022-09-21T16:38:53.670Z,4.55
2022-09-21T16:41:21.512Z,4.35
2022-09-21T16:43:51.042Z,11.77
2022-09-21T16:46:36.590Z,3.75
2022-09-21T16:49:23.963Z,6.72
2022-09-21T16:51:55.485Z,7.85
2022-09-21T16:54:25.329Z,7.88
2022-09-21T16:56:53.954Z,5.05
2022-09-21T16:59:39.184Z,6.40
2022-09-21T17:02:06.512Z,5.53
2022-09-21T17:04:35.123Z,4.10
2022-09-21T17:07:05.075Z,6.97
2022-09-21T17:09:32.053Z,6.18
2022-09-21T17:12:18.221Z,2.85
2022-09-21T17:15:03.987Z,3.42
2022-09-21T17:18:08.069Z,3.55
2022-09-21T17:20:53.726Z,8.50
2022-09-21T17:23:21.984Z,3.03
2022-09-21T17:25:48.701Z,3.65
2022-09-21T17:28:26.283Z,3.10
2022-09-21T17:30:54.406Z,3.92
2022-09-21T17:33:40.808Z,5.57
2022-09-21T17:36:33.257Z,2.35
2022-09-21T17:39:20.179Z,5.85
2022-09-21T17:41:52.353Z,3.00
2022-09-21T17:44:46.706Z,4.45
2022-09-21T17:47:33.995Z,1.55
2022-09-21T17:50:12.800Z,3.63
2022-09-21T17:52:59.555Z,5.00
2022-09-21T17:55:26.637Z,1.67
2022-09-21T17:58:17.396Z,2.75
2022-09-21T18:01:07.743Z,5.88
2022-09-21T18:03:41.840Z,1.92
2022-09-21T18:06:09.724Z,9.00
2022-09-21T18:08:38.239Z,1.98
2022-09-21T18:11:08.303Z,2.35
2022-09-21T18:14:17.447Z,4.13
2022-09-21T18:20:11.803Z,2.00
2022-09-21T18:23:03.156Z,4.30
2022-09-21T18:25:34.897Z,2.97
2022-09-21T18:28:15.656Z,7.07
2022-09-21T18:31:02.948Z,5.20
2022-09-21T18:33:56.794Z,3.17
2022-09-21T18:36:31.722Z,2.85
2022-09-21T18:39:07.746Z,4.10
2022-09-21T18:41:55.859Z,2.60
2022-09-21T18:44:44.331Z,6.80
2022-09-21T18:47:59.418Z,3.25
2022-09-21T18:50:26.172Z,3.40
2022-09-21T18:53:01.596Z,6.18
2022-09-21T18:55:33.049Z,5.93
2022-09-21T18:58:19.056Z,3.90
2022-09-21T19:00:46.713Z,3.97
2022-09-21T19:03:18.514Z,4.55
2022-09-21T19:06:28.288Z,4.80
2022-09-21T19:09:15.329Z,4.80
2022-09-21T19:12:34.020Z,4.13
2022-09-21T19:15:42.261Z,4.43
2022-09-21T19:18:28.181Z,8.30
2022-09-21T19:21:14.513Z,4.03
2022-09-21T19:23:50.697Z,3.88
2022-09-21T19:26:39.050Z,6.00
2022-09-21T19:32:35.143Z,3.00
2022-09-21T19:35:39.865Z,6.03
2022-09-21T19:38:08.995Z,4.32
2022-09-21T19:40:39.616Z,3.38
2022-09-21T19:43:34.088Z,8.80
2022-09-21T19:46:39.049Z,3.45
2022-09-21T19:49:18.175Z,4.57
2022-09-21T19:51:53.298Z,3.63
2022-09-21T19:54:41.116Z,7.82
2022-09-21T19:57:34.973Z,8.30
2022-09-21T20:00:03.431Z,8.90
2022-09-21T20:02:36.961Z,4.28
2022-09-21T20:05:23.512Z,6.40
2022-09-21T20:07:55.124Z,6.53
2022-09-21T20:10:52.817Z,5.13
2022-09-21T20:13:47.677Z,9.05
2022-09-21T20:16:44.439Z,3.30
2022-09-21T20:19:37.542Z,4.43
2022-09-21T20:22:33.783Z,5.07
2022-09-21T20:25:16.258Z,5.28
2022-09-21T20:31:06.111Z,4.07
2022-09-21T20:33:52.391Z,3.15
2022-09-21T20:36:38.588Z,6.30
2022-09-21T20:39:06.173Z,3.65
2022-09-21T20:41:33.213Z,3.38
2022-09-21T20:44:00.093Z,8.00
2022-09-21T20:46:26.907Z,3.20
2022-09-21T20:49:04.669Z,6.05
2022-09-21T20:51:34.065Z,3.30
2022-09-21T20:54:02.401Z,3.70
2022-09-21T20:56:30.416Z,2.65
2022-09-21T20:59:15.832Z,2.47
2022-09-21T21:04:27.015Z,2.92
2022-09-21T21:06:54.591Z,3.15
2022-09-21T21:12:06.016Z,3.47
2022-09-21T21:14:32.888Z,1.73
2022-09-21T21:19:43.918Z,2.90
2022-09-21T21:22:12.711Z,5.00
2022-09-21T21:24:40.245Z,3.33
2022-09-21T21:27:22.052Z,3.17
2022-09-21T21:30:12.404Z,3.00
2022-09-21T21:32:39.180Z,1.98
2022-09-21T21:35:06.436Z,1.80
2022-09-21T21:37:33.205Z,2.70
2022-09-21T21:40:00.504Z,3.67
2022-09-21T21:42:29.363Z,3.72
2022-09-21T21:44:56.493Z,2.85
2022-09-21T21:47:41.971Z,6.00
2022-09-21T21:50:10.379Z,2.50
2022-09-21T21:52:37.636Z,3.20
2022-09-21T21:55:05.668Z,1.98
2022-09-21T21:57:32.409Z,1.92
2022-09-21T22:00:18.189Z,2.85
2022-09-21T22:02:44.950Z,2.42
2022-09-21T22:05:11.705Z,2.75
2022-09-21T22:07:39.816Z,1.80
2022-09-21T22:10:08.879Z,2.28
2022-09-21T22:15:19.803Z,3.53
2022-09-21T22:17:46.516Z,2.63
2022-09-21T22:20:13.332Z,2.88
2022-09-21T22:22:40.084Z,2.00
2022-09-21T22:25:08.301Z,1.70
2022-09-21T22:27:35.171Z,2.85
2022-09-21T22:30:01.996Z,3.45
2022-09-21T22:32:28.735Z,5.68
2022-09-21T22:34:55.518Z,4.10
2022-09-21T22:37:22.332Z,2.83
2022-09-21T22:39:49.081Z,7.68
2022-09-21T22:42:16.037Z,4.55
2022-09-21T22:44:43.003Z,2.70
2022-09-21T22:47:09.932Z,3.45
2022-09-21T22:49:36.793Z,3.38
2022-09-21T22:52:03.576Z,2.55
2022-09-21T22:54:48.686Z,7.57
2022-09-21T22:57:15.428Z,4.07
2022-09-21T23:00:19.794Z,1.90
2022-09-21T23:02:46.931Z,2.50
2022-09-21T23:05:13.739Z,6.30
2022-09-21T23:07:40.611Z,2.20
2022-09-21T23:10:07.996Z,8.48
2022-09-21T23:12:34.797Z,4.70
2022-09-21T23:15:01.521Z,1.50
2022-09-21T23:17:28.920Z,2.42
2022-09-21T23:19:55.631Z,2.05
2022-09-21T23:22:41.157Z,5.10
2022-09-21T23:25:08.425Z,4.10
2022-09-21T23:27:35.157Z,2.85
2022-09-21T23:30:02.505Z,1.17
2022-09-21T23:32:29.235Z,3.22
2022-09-21T23:35:14.648Z,2.78
2022-09-21T23:37:59.731Z,4.90
2022-09-21T23:40:26.824Z,3.13
2022-09-21T23:42:53.622Z,2.03
2022-09-21T23:45:38.965Z,2.95
2022-09-21T23:48:05.699Z,4.32
2022-09-21T23:50:32.433Z,4.40
2022-09-21T23:52:59.166Z,2.55
2022-09-21T23:55:26.168Z,2.72
2022-09-21T23:57:52.946Z,2.38
